Airfield :
LOGIN :

Register | Disclaimer

   EN    FR    IT 

 










Legend :    VFR   Marginal VFR   IFR   Intensive IFR   Very Intensive IFR
Visi :
Ceiling :
>= 8 km
>= 3000ft
5 to 8 km
1000 to 3000 ft
1500m to 5 km
500 to 1000 ft
800 to 1500m
200 to 500 ft
< 800m
< 200 ft
Symbols :   Thunderstorms  Fog  Heavy snow  Heavy precipitations  Wind > 20 kt
SIGMETs :     Misc.  Thunderstorms  Icing  Turbulence  Mountain Waves  Volcanic Ashes







- Airport Elevation : 228 ft
- IATA code : OPO


LPPR - Porto Fr. Sa Carneiro

CURRENT METAR :
  • 212330Z 18012KT 9999 FEW008 SCT022 BKN030 17/16 Q1011

EXPIRED METARs :
  • 212300Z 19010KT 9999 FEW007 SCT022 BKN030 17/16 Q1011
  • 212230Z 18010KT 9999 FEW009 SCT020 BKN033 17/16 Q1011
  • 212200Z 18010KT 9999 FEW008 BKN015 17/16 Q1011
  • 212130Z 18011KT 9999 FEW007 BKN015 17/16 Q1011
  • 212100Z 19008KT 9999 SCT018 BKN030 17/16 Q1011

TAF TAF LPPR
Valid from the 22 at 00:00 until the 23 at 00:00 UTC


212300Z 2200/2224 19008KT 9999 SCT015
TEMPO 2200/2215 8000 SHRA FEW008 BKN012
BECMG 2213/2215 25008KT
BECMG 2220/2222 17005KT
No reported NOTAMs for that airfield.



MET'MAP, your aeronautical weather chart ! - Copyright ORBIFLY December 2007 - Disclaimer

ORBIFLY MET'MAP TEAM :

Programming & Development : Alexandra Zaïnal
Concept & Development : Baudouin d'Aumeries
Co-Development & Prog : Marc-Olivier Méhu
Technical & hardware support : Manuel Goepfert

Contact : metmap@orbifly.com




SOURCES & CREDITS :

   NOAA